createdAt,value
2019-02-06T00:01:54.697Z,0.09
2019-02-06T00:04:23.418Z,0.05
2019-02-06T00:06:53.946Z,0.03
2019-02-06T00:09:22.505Z,-0.03
2019-02-06T00:11:51.260Z,0.00
2019-02-06T00:14:20.156Z,-0.02
2019-02-06T00:16:50.934Z,-0.06
2019-02-06T00:19:19.929Z,-0.10
2019-02-06T00:21:48.608Z,-0.09
2019-02-06T00:24:17.065Z,-0.05
2019-02-06T00:26:46.782Z,-0.09
2019-02-06T00:29:15.872Z,-0.14
2019-02-06T00:31:44.347Z,-0.10
2019-02-06T00:34:13.336Z,-0.11
2019-02-06T00:36:41.836Z,-0.10
2019-02-06T00:39:10.917Z,-0.04
2019-02-06T00:41:39.371Z,-0.08
2019-02-06T00:44:08.385Z,-0.05
2019-02-06T00:46:38.568Z,-0.11
2019-02-06T00:49:07.285Z,-0.05
2019-02-06T00:51:35.813Z,-0.04
2019-02-06T00:54:04.569Z,-0.02
2019-02-06T00:56:33.303Z,-0.07
2019-02-06T00:59:01.960Z,-0.10
2019-02-06T01:01:30.415Z,-0.13
2019-02-06T01:03:59.203Z,-0.12
2019-02-06T01:06:29.524Z,-0.16
2019-02-06T01:08:58.270Z,-0.12
2019-02-06T01:11:26.795Z,-0.14
2019-02-06T01:13:55.246Z,-0.17
2019-02-06T01:16:24.420Z,-0.18
2019-02-06T01:18:53.472Z,-0.17
2019-02-06T01:21:22.223Z,-0.21
2019-02-06T01:23:50.950Z,-0.22
2019-02-06T01:26:22.118Z,-0.21
2019-02-06T01:28:50.693Z,-0.23
2019-02-06T01:31:23.057Z,-0.29
2019-02-06T01:33:51.492Z,-0.34
2019-02-06T01:36:19.979Z,-0.36
2019-02-06T01:38:48.812Z,-0.35
2019-02-06T01:41:17.674Z,-0.36
2019-02-06T01:43:46.216Z,-0.40
2019-02-06T01:46:14.695Z,-0.52
2019-02-06T01:48:43.429Z,-0.56
2019-02-06T01:51:11.949Z,-0.55
2019-02-06T01:53:40.936Z,-0.59
2019-02-06T01:56:09.361Z,-0.59
2019-02-06T01:58:38.104Z,-0.59
2019-02-06T02:01:06.556Z,-0.58
2019-02-06T02:03:35.020Z,-0.59
2019-02-06T02:06:03.528Z,-0.57
2019-02-06T02:08:33.648Z,-0.93
2019-02-06T02:11:02.519Z,-0.56
2019-02-06T02:13:30.954Z,-0.50
2019-02-06T02:15:59.692Z,-0.46
2019-02-06T02:18:28.237Z,-0.40
2019-02-06T02:20:57.165Z,-0.34
2019-02-06T02:23:26.086Z,-0.34
2019-02-06T02:25:54.914Z,-0.31
2019-02-06T02:28:23.680Z,-0.31
2019-02-06T02:30:54.557Z,-0.24
2019-02-06T02:33:23.986Z,-0.24
2019-02-06T02:35:52.432Z,-0.26
2019-02-06T02:38:20.883Z,-0.25
2019-02-06T02:40:49.741Z,-0.25
2019-02-06T02:43:18.630Z,-0.24
2019-02-06T02:45:47.443Z,-0.26
2019-02-06T02:48:15.915Z,-0.24
2019-02-06T02:50:44.359Z,-0.26
2019-02-06T02:53:12.794Z,-0.26
2019-02-06T02:55:41.564Z,-0.29
2019-02-06T02:58:10.206Z,-0.29
2019-02-06T03:01:05.932Z,-0.30
2019-02-06T03:03:40.962Z,-0.28
2019-02-06T03:06:09.665Z,-0.31
2019-02-06T03:08:38.371Z,-0.33
2019-02-06T03:11:06.832Z,-0.31
2019-02-06T03:13:35.604Z,-0.31
2019-02-06T03:16:04.056Z,-0.35
2019-02-06T03:18:32.491Z,-0.35
2019-02-06T03:21:00.949Z,-0.36
2019-02-06T03:23:29.777Z,-0.37
2019-02-06T03:25:58.522Z,-0.37
2019-02-06T03:28:27.087Z,-0.38
2019-02-06T03:30:56.594Z,-0.36
2019-02-06T03:33:25.405Z,-0.34
2019-02-06T03:35:53.883Z,-0.35
2019-02-06T03:38:22.994Z,-0.37
2019-02-06T03:40:51.759Z,-0.35
2019-02-06T03:43:20.236Z,-0.37
2019-02-06T03:45:48.768Z,-0.39
2019-02-06T03:48:17.291Z,-0.34
2019-02-06T03:50:46.190Z,-0.32
2019-02-06T03:53:14.708Z,-0.25
2019-02-06T03:55:43.526Z,-0.24
2019-02-06T03:58:11.960Z,-0.22
2019-02-06T04:00:40.422Z,-0.18
2019-02-06T04:03:09.176Z,-0.17
2019-02-06T04:05:37.627Z,-0.21
2019-02-06T04:08:08.518Z,-0.21
2019-02-06T04:10:37.761Z,-0.23
2019-02-06T04:13:06.225Z,-0.21
2019-02-06T04:15:34.805Z,-0.22
2019-02-06T04:18:03.254Z,-0.25
2019-02-06T04:20:32.120Z,-0.28
2019-02-06T04:23:00.574Z,-0.31
2019-02-06T04:25:29.051Z,-0.31
2019-02-06T04:27:57.493Z,-0.28
2019-02-06T04:30:25.951Z,-0.30
2019-02-06T04:32:54.422Z,-0.28
2019-02-06T04:35:22.980Z,-0.30
2019-02-06T04:37:51.916Z,-0.30
2019-02-06T04:40:20.427Z,-0.29
2019-02-06T04:42:49.249Z,-0.28
2019-02-06T04:45:19.086Z,-0.25
2019-02-06T04:47:47.516Z,-0.27
2019-02-06T04:50:16.498Z,-0.26
2019-02-06T04:52:45.788Z,-0.26
2019-02-06T04:55:14.783Z,-0.24
2019-02-06T04:57:43.318Z,-0.26
2019-02-06T05:00:24.339Z,-0.21
2019-02-06T05:02:53.079Z,-0.20
2019-02-06T05:05:21.830Z,-0.21
2019-02-06T05:07:50.307Z,-0.24
2019-02-06T05:10:18.820Z,-0.29
2019-02-06T05:12:47.593Z,-0.35
2019-02-06T05:15:16.308Z,-0.38
2019-02-06T05:17:44.796Z,-0.40
2019-02-06T05:20:26.670Z,-0.43
2019-02-06T05:22:55.171Z,-0.47
2019-02-06T05:25:24.015Z,-0.52
2019-02-06T05:27:52.481Z,-0.53
2019-02-06T05:30:20.906Z,-0.50
2019-02-06T05:32:49.363Z,-0.52
2019-02-06T05:35:20.187Z,-0.52
2019-02-06T05:37:48.854Z,-0.48
2019-02-06T05:40:17.341Z,-0.46
2019-02-06T05:42:46.645Z,-0.42
2019-02-06T05:45:15.123Z,-0.34
2019-02-06T05:47:43.907Z,-0.35
2019-02-06T05:50:12.599Z,-0.18
2019-02-06T05:52:41.070Z,-0.13
2019-02-06T05:55:09.598Z,-0.09
2019-02-06T05:57:38.448Z,-0.11
2019-02-06T06:00:14.128Z,-0.14
2019-02-06T06:02:42.592Z,-0.20
2019-02-06T06:05:11.365Z,-0.21
2019-02-06T06:07:45.283Z,-0.25
2019-02-06T06:10:12.264Z,-0.26
2019-02-06T06:12:41.260Z,-0.23
2019-02-06T06:15:10.879Z,-0.22
2019-02-06T06:17:41.655Z,-0.21
2019-02-06T06:20:10.772Z,-0.24
2019-02-06T06:22:39.531Z,-0.21
2019-02-06T06:25:08.970Z,-0.21
2019-02-06T06:27:38.642Z,-0.14
2019-02-06T06:30:09.917Z,-0.04
2019-02-06T06:32:39.297Z,-0.05
2019-02-06T06:35:08.477Z,-0.06
2019-02-06T06:37:37.298Z,-0.06
2019-02-06T06:40:07.240Z,-0.05
2019-02-06T06:42:35.744Z,-0.02
2019-02-06T06:45:07.634Z,-0.02
2019-02-06T06:47:36.424Z,-0.05
2019-02-06T06:50:06.444Z,-0.05
2019-02-06T06:52:35.212Z,-0.11
2019-02-06T06:55:04.459Z,-0.15
2019-02-06T06:57:33.921Z,-0.18
2019-02-06T07:00:02.666Z,-0.16
2019-02-06T07:02:32.303Z,-0.13
2019-02-06T07:05:00.895Z,-0.12
2019-02-06T07:07:29.347Z,-0.11
2019-02-06T07:09:57.802Z,-0.09
2019-02-06T07:12:26.270Z,-0.09
2019-02-06T07:14:55.044Z,-0.12
2019-02-06T07:17:23.549Z,-0.10
2019-02-06T07:19:52.377Z,-0.10
2019-02-06T07:22:21.094Z,-0.12
2019-02-06T07:24:49.624Z,-0.14
2019-02-06T07:27:20.929Z,-0.10
2019-02-06T07:29:48.314Z,-0.11
2019-02-06T07:32:16.998Z,-0.04
2019-02-06T07:34:45.872Z,0.02
2019-02-06T07:37:14.952Z,0.08
2019-02-06T07:39:43.390Z,0.16
2019-02-06T07:42:12.035Z,0.22
2019-02-06T07:44:40.795Z,0.29
2019-02-06T07:47:10.298Z,0.37
2019-02-06T07:49:38.817Z,0.44
2019-02-06T07:52:07.242Z,0.52
2019-02-06T07:54:35.679Z,0.67
2019-02-06T07:57:04.594Z,0.78
2019-02-06T07:59:33.105Z,0.87
2019-02-06T08:02:01.644Z,0.96
2019-02-06T08:04:30.357Z,1.13
2019-02-06T08:06:59.143Z,1.27
2019-02-06T08:09:28.066Z,1.30
2019-02-06T08:11:56.507Z,1.42
2019-02-06T08:14:25.207Z,1.54
2019-02-06T08:16:54.016Z,1.68
2019-02-06T08:19:22.699Z,1.78
2019-02-06T08:21:51.148Z,1.92
2019-02-06T08:24:19.599Z,1.94
2019-02-06T08:26:48.059Z,1.99
2019-02-06T08:29:16.764Z,2.04
2019-02-06T08:31:46.069Z,2.03
2019-02-06T08:34:14.821Z,2.06
2019-02-06T08:36:43.489Z,2.13
2019-02-06T08:39:12.249Z,2.07
2019-02-06T08:41:41.054Z,2.13
2019-02-06T08:44:09.498Z,2.18
2019-02-06T08:46:38.255Z,2.23
2019-02-06T08:49:06.692Z,2.22
2019-02-06T08:51:35.820Z,2.29
2019-02-06T08:54:04.613Z,2.45
2019-02-06T08:56:33.070Z,2.43
2019-02-06T08:59:01.815Z,2.45
2019-02-06T09:01:30.558Z,2.61
2019-02-06T09:03:58.997Z,2.59
2019-02-06T09:06:27.767Z,2.64
2019-02-06T09:08:59.888Z,2.66
2019-02-06T09:11:26.998Z,2.71
2019-02-06T09:13:55.751Z,2.85
2019-02-06T09:16:24.193Z,3.06
2019-02-06T09:18:52.896Z,3.27
2019-02-06T09:21:21.334Z,3.39
2019-02-06T09:23:50.396Z,3.41
2019-02-06T09:26:19.161Z,3.48
2019-02-06T09:28:47.601Z,3.47
2019-02-06T09:31:16.352Z,3.48
2019-02-06T09:33:44.795Z,3.38
2019-02-06T09:36:14.639Z,3.35
2019-02-06T09:38:43.083Z,3.38
2019-02-06T09:41:11.830Z,3.49
2019-02-06T09:43:40.334Z,3.57
2019-02-06T09:46:08.780Z,3.61
2019-02-06T09:48:37.509Z,3.61
2019-02-06T09:51:05.945Z,3.59
2019-02-06T09:53:34.410Z,3.60
2019-02-06T09:56:02.916Z,3.73
2019-02-06T09:58:31.358Z,3.80
2019-02-06T10:01:00.044Z,3.77
2019-02-06T10:03:28.839Z,3.91
2019-02-06T10:05:57.265Z,3.81
2019-02-06T10:08:25.709Z,3.75
2019-02-06T10:10:54.390Z,3.80
2019-02-06T10:13:23.366Z,4.04
2019-02-06T10:15:52.158Z,4.14
2019-02-06T10:18:20.602Z,4.38
2019-02-06T10:20:51.263Z,4.26
2019-02-06T10:23:20.053Z,4.46
2019-02-06T10:25:49.964Z,4.42
2019-02-06T10:28:18.412Z,4.67
2019-02-06T10:30:49.649Z,4.74
2019-02-06T10:33:19.060Z,4.63
2019-02-06T10:35:47.854Z,4.40
2019-02-06T10:38:16.607Z,4.39
2019-02-06T10:40:45.235Z,4.27
2019-02-06T10:43:13.832Z,4.23
2019-02-06T10:45:42.826Z,4.28
2019-02-06T10:48:30.898Z,4.40
2019-02-06T10:50:59.618Z,4.33
2019-02-06T10:53:28.113Z,4.55
2019-02-06T10:55:56.684Z,4.49
2019-02-06T10:58:25.221Z,4.47
2019-02-06T11:00:56.391Z,4.52
2019-02-06T11:03:25.126Z,4.53
2019-02-06T11:05:53.603Z,4.72
2019-02-06T11:08:24.504Z,4.72
2019-02-06T11:10:53.239Z,5.22
2019-02-06T11:13:21.846Z,5.66
2019-02-06T11:15:50.412Z,5.95
2019-02-06T11:18:19.316Z,6.43
2019-02-06T11:20:48.122Z,6.40
2019-02-06T11:23:16.917Z,6.55
2019-02-06T11:25:45.436Z,6.33
2019-02-06T11:28:14.357Z,5.86
2019-02-06T11:30:42.985Z,6.00
2019-02-06T11:33:11.476Z,6.22
2019-02-06T11:35:40.249Z,6.43
2019-02-06T11:38:08.789Z,6.42
2019-02-06T11:40:37.619Z,6.50
2019-02-06T11:43:06.696Z,6.32
2019-02-06T11:45:35.446Z,6.49
2019-02-06T11:48:04.207Z,7.02
2019-02-06T11:50:35.360Z,7.41
2019-02-06T11:53:04.154Z,8.04
2019-02-06T11:55:32.867Z,8.60
2019-02-06T11:58:01.610Z,8.19
2019-02-06T12:00:44.137Z,8.28
2019-02-06T12:03:12.861Z,8.49
2019-02-06T12:05:41.342Z,8.46
2019-02-06T12:08:12.506Z,8.34
2019-02-06T12:10:40.360Z,7.90
2019-02-06T12:13:09.224Z,7.90
2019-02-06T12:15:37.989Z,7.83
2019-02-06T12:18:06.671Z,7.41
2019-02-06T12:20:35.330Z,7.31
2019-02-06T12:23:03.919Z,7.11
2019-02-06T12:25:34.465Z,6.91
2019-02-06T12:28:05.096Z,6.82
2019-02-06T12:30:33.320Z,7.05
2019-02-06T12:33:02.442Z,7.06
2019-02-06T12:35:31.179Z,7.08
2019-02-06T12:38:01.277Z,7.17
2019-02-06T12:40:29.842Z,6.99
2019-02-06T12:42:59.404Z,6.92
2019-02-06T12:45:28.236Z,6.58
2019-02-06T12:47:56.776Z,6.43
2019-02-06T12:50:27.155Z,6.50
2019-02-06T12:52:57.516Z,6.52
2019-02-06T12:55:28.691Z,6.52
2019-02-06T12:57:57.339Z,6.53
2019-02-06T13:00:27.472Z,6.40
2019-02-06T13:02:59.657Z,6.30
2019-02-06T13:05:26.676Z,6.62
2019-02-06T13:07:55.329Z,6.63
2019-02-06T13:10:33.285Z,6.48
2019-02-06T13:12:54.476Z,6.42
2019-02-06T13:15:23.208Z,6.34
2019-02-06T13:17:52.598Z,6.48
2019-02-06T13:20:23.588Z,6.64
2019-02-06T13:22:52.140Z,6.62
2019-02-06T13:25:20.671Z,6.86
2019-02-06T13:27:49.201Z,6.65
2019-02-06T13:30:26.709Z,6.59
2019-02-06T13:32:55.292Z,6.72
2019-02-06T13:35:23.784Z,6.96
2019-02-06T13:37:52.368Z,6.92
2019-02-06T13:40:21.770Z,6.79
2019-02-06T13:42:50.399Z,6.93
2019-02-06T13:45:24.369Z,7.00
2019-02-06T13:47:52.940Z,6.96
2019-02-06T13:50:22.460Z,6.93
2019-02-06T13:52:51.606Z,6.92
2019-02-06T13:55:20.364Z,7.10
2019-02-06T13:57:48.958Z,7.10
2019-02-06T14:00:25.801Z,7.03
2019-02-06T14:02:54.419Z,6.86
2019-02-06T14:05:29.862Z,6.77
2019-02-06T14:08:00.667Z,6.82
2019-02-06T14:10:29.705Z,7.03
2019-02-06T14:12:58.309Z,7.06
2019-02-06T14:15:28.839Z,7.13
2019-02-06T14:17:57.623Z,7.07
2019-02-06T14:20:26.194Z,6.94
2019-02-06T14:23:01.011Z,6.80
2019-02-06T14:26:27.306Z,6.73
2019-02-06T14:29:26.783Z,6.72
2019-02-06T14:32:50.559Z,6.53
2019-02-06T14:35:40.256Z,6.37
2019-02-06T14:38:39.833Z,6.25
2019-02-06T14:41:45.589Z,6.27
2019-02-06T14:45:03.895Z,6.19
2019-02-06T14:48:05.966Z,6.23
2019-02-06T14:50:52.983Z,6.07
2019-02-06T14:54:03.295Z,6.01
2019-02-06T14:57:01.350Z,6.15
2019-02-06T14:59:52.730Z,6.11
2019-02-06T15:03:00.622Z,6.11
2019-02-06T15:05:50.238Z,6.08
2019-02-06T15:08:45.709Z,6.15
2019-02-06T15:11:24.847Z,6.07
2019-02-06T15:14:28.377Z,6.06
2019-02-06T15:17:16.258Z,6.11
2019-02-06T15:20:04.140Z,6.12
2019-02-06T15:23:04.539Z,5.99
2019-02-06T15:25:49.712Z,5.93
2019-02-06T15:28:44.559Z,5.90
2019-02-06T15:31:35.260Z,5.94
2019-02-06T15:34:27.922Z,5.93
2019-02-06T15:37:34.820Z,5.91
2019-02-06T15:40:23.485Z,5.77
2019-02-06T15:43:07.247Z,5.65
2019-02-06T15:46:20.021Z,5.55
2019-02-06T15:48:58.401Z,5.49
2019-02-06T15:52:10.003Z,5.43
2019-02-06T15:55:41.328Z,5.36
2019-02-06T15:58:35.074Z,5.29
2019-02-06T16:01:41.043Z,5.08
2019-02-06T16:04:46.136Z,5.01
2019-02-06T16:07:41.254Z,4.92
2019-02-06T16:10:44.535Z,4.85
2019-02-06T16:14:09.492Z,4.83
2019-02-06T16:17:02.903Z,4.82
2019-02-06T16:20:05.503Z,4.75
2019-02-06T16:23:09.796Z,4.84
2019-02-06T16:26:12.121Z,4.82
2019-02-06T16:29:12.244Z,4.83
2019-02-06T16:32:14.623Z,4.76
2019-02-06T16:35:20.946Z,4.77
2019-02-06T16:38:19.024Z,4.71
2019-02-06T16:41:28.131Z,4.72
2019-02-06T16:44:11.140Z,4.71
2019-02-06T16:47:05.516Z,4.68
2019-02-06T16:49:44.647Z,4.77
2019-02-06T16:52:41.434Z,4.75
2019-02-06T16:56:05.036Z,4.77
2019-02-06T16:58:48.025Z,4.71
2019-02-06T17:01:39.954Z,4.69
2019-02-06T17:04:44.955Z,4.66
2019-02-06T17:07:54.961Z,4.70
2019-02-06T17:10:41.351Z,4.68
2019-02-06T17:13:32.753Z,4.66
2019-02-06T17:16:50.015Z,4.64
2019-02-06T17:19:56.782Z,4.68
2019-02-06T17:22:58.321Z,4.65
2019-02-06T17:25:37.881Z,4.57
2019-02-06T17:28:43.721Z,4.63
2019-02-06T17:31:47.912Z,4.61
2019-02-06T17:34:54.251Z,4.61
2019-02-06T17:37:56.526Z,4.55
2019-02-06T17:41:19.671Z,4.58
2019-02-06T17:44:23.293Z,4.52
2019-02-06T17:47:35.841Z,4.49
2019-02-06T17:50:36.459Z,4.47
2019-02-06T17:53:58.494Z,4.48
2019-02-06T17:56:27.281Z,4.51
2019-02-06T17:58:55.763Z,4.46
2019-02-06T18:01:33.843Z,4.40
2019-02-06T18:04:08.436Z,4.41
2019-02-06T18:06:36.922Z,4.37
2019-02-06T18:09:10.316Z,4.38
2019-02-06T18:11:38.979Z,4.37
2019-02-06T18:14:07.715Z,4.43
2019-02-06T18:16:36.258Z,4.40
2019-02-06T18:19:04.750Z,4.33
2019-02-06T18:21:33.485Z,4.33
2019-02-06T18:24:02.071Z,4.27
2019-02-06T18:26:31.108Z,4.25
2019-02-06T18:28:59.895Z,4.26
2019-02-06T18:31:28.368Z,4.23
2019-02-06T18:33:57.480Z,4.26
2019-02-06T18:36:26.259Z,4.22
2019-02-06T18:38:54.859Z,4.20
2019-02-06T18:41:23.359Z,4.19
2019-02-06T18:43:52.065Z,4.17
2019-02-06T18:46:20.557Z,4.18
2019-02-06T18:48:49.043Z,4.14
2019-02-06T18:51:17.624Z,4.19
2019-02-06T18:53:47.120Z,4.17
2019-02-06T18:56:15.625Z,4.13
2019-02-06T18:58:44.193Z,4.12
2019-02-06T19:01:12.707Z,4.11
2019-02-06T19:03:43.819Z,4.08
2019-02-06T19:06:12.926Z,4.11
2019-02-06T19:08:41.878Z,4.09
2019-02-06T19:11:10.740Z,4.09
2019-02-06T19:13:39.282Z,4.13
2019-02-06T19:16:07.778Z,4.06
2019-02-06T19:18:37.276Z,4.03
2019-02-06T19:21:06.050Z,4.00
2019-02-06T19:23:34.965Z,4.00
2019-02-06T19:26:03.662Z,3.96
2019-02-06T19:28:32.215Z,3.92
2019-02-06T19:31:00.962Z,3.90
2019-02-06T19:33:29.496Z,3.89
2019-02-06T19:35:57.972Z,3.88
2019-02-06T19:38:27.289Z,3.80
2019-02-06T19:40:55.835Z,3.82
2019-02-06T19:43:24.330Z,3.81
2019-02-06T19:45:52.899Z,3.76
2019-02-06T19:48:22.424Z,3.75
2019-02-06T19:50:51.405Z,3.76
2019-02-06T19:53:20.041Z,3.71
2019-02-06T19:55:48.523Z,3.74
2019-02-06T19:58:16.995Z,3.67
2019-02-06T20:00:47.152Z,3.65
2019-02-06T20:03:15.951Z,3.65
2019-02-06T20:05:44.433Z,3.62
2019-02-06T20:08:14.288Z,3.61
2019-02-06T20:10:44.815Z,3.63
2019-02-06T20:13:14.650Z,3.59
2019-02-06T20:15:43.313Z,3.57
2019-02-06T20:18:12.448Z,3.55
2019-02-06T20:20:40.909Z,3.58
2019-02-06T20:23:12.540Z,3.51
2019-02-06T20:25:41.082Z,3.47
2019-02-06T20:28:15.305Z,3.47
2019-02-06T20:30:59.270Z,3.43
2019-02-06T20:33:27.365Z,3.36
2019-02-06T20:35:56.074Z,3.34
2019-02-06T20:38:24.961Z,3.33
2019-02-06T20:40:53.546Z,3.37
2019-02-06T20:43:22.567Z,3.39
2019-02-06T20:45:51.472Z,3.30
2019-02-06T20:48:20.278Z,3.39
2019-02-06T20:50:51.434Z,3.33
2019-02-06T20:53:19.068Z,3.32
2019-02-06T20:55:47.594Z,3.30
2019-02-06T20:58:16.101Z,3.27
2019-02-06T21:00:44.900Z,3.32
2019-02-06T21:03:13.414Z,3.29
2019-02-06T21:05:42.323Z,3.29
2019-02-06T21:08:11.142Z,3.29
2019-02-06T21:10:39.911Z,3.32
2019-02-06T21:13:08.407Z,3.30
2019-02-06T21:15:36.977Z,3.36
2019-02-06T21:18:05.706Z,3.40
2019-02-06T21:20:34.228Z,3.35
2019-02-06T21:23:03.316Z,3.39
2019-02-06T21:25:31.840Z,3.38
2019-02-06T21:28:00.388Z,3.33
2019-02-06T21:30:30.804Z,3.27
2019-02-06T21:32:59.579Z,3.24
2019-02-06T21:35:28.063Z,3.23
2019-02-06T21:37:56.930Z,3.21
2019-02-06T21:40:27.159Z,3.18
2019-02-06T21:42:55.948Z,3.18
2019-02-06T21:45:24.690Z,3.12
2019-02-06T21:47:53.324Z,3.09
2019-02-06T21:50:22.643Z,3.06
2019-02-06T21:52:51.389Z,3.08
2019-02-06T21:55:20.597Z,3.11
2019-02-06T21:57:49.137Z,3.08
2019-02-06T22:00:28.638Z,3.09
2019-02-06T22:02:57.422Z,3.10
2019-02-06T22:05:26.308Z,3.12
2019-02-06T22:07:55.091Z,3.10
2019-02-06T22:10:23.604Z,3.08
2019-02-06T22:15:41.911Z,3.11
2019-02-06T22:18:11.386Z,3.06
2019-02-06T22:20:40.325Z,3.05
2019-02-06T22:23:09.613Z,3.09
2019-02-06T22:25:38.285Z,3.04
2019-02-06T22:28:06.994Z,3.04
2019-02-06T22:30:35.450Z,3.06
2019-02-06T22:33:04.573Z,3.07
2019-02-06T22:35:33.481Z,3.04
2019-02-06T22:38:01.932Z,3.03
2019-02-06T22:40:30.683Z,3.02
2019-02-06T22:42:59.130Z,2.98
2019-02-06T22:45:27.754Z,2.97
2019-02-06T22:47:56.621Z,2.98
2019-02-06T22:50:26.180Z,2.94
2019-02-06T22:52:54.625Z,2.93
2019-02-06T22:55:23.073Z,2.92
2019-02-06T22:57:52.221Z,2.90
2019-02-06T23:00:55.520Z,2.85
2019-02-06T23:03:35.899Z,2.83
2019-02-06T23:06:05.427Z,2.78
2019-02-06T23:08:34.165Z,2.82
2019-02-06T23:11:03.033Z,2.82
2019-02-06T23:13:31.853Z,2.82
2019-02-06T23:16:00.634Z,2.87
2019-02-06T23:18:29.163Z,2.85
2019-02-06T23:20:58.073Z,2.88
2019-02-06T23:23:26.747Z,2.89
2019-02-06T23:25:55.573Z,2.86
2019-02-06T23:28:24.375Z,2.91
2019-02-06T23:30:52.836Z,2.88
2019-02-06T23:33:21.281Z,2.87
2019-02-06T23:35:49.757Z,2.84
2019-02-06T23:38:18.217Z,2.83
2019-02-06T23:40:47.043Z,2.85
2019-02-06T23:43:15.484Z,2.75
2019-02-06T23:45:44.253Z,2.74
2019-02-06T23:48:13.219Z,2.70
2019-02-06T23:50:41.928Z,2.67
2019-02-06T23:53:10.464Z,2.64
2019-02-06T23:55:38.884Z,2.69
2019-02-06T23:58:07.333Z,2.65
